Time,TemperatureF,DewpointF,PressureIn,WindDirection,WindDirectionDegrees,WindSpeedMPH,WindSpeedGustMPH,Humidity,HourlyPrecipIn,Conditions,Clouds,dailyrainin,SoftwareType,DateUTC
2013-03-05 00:06:00,63.7,26.2,29.71,NNW,337,2.7,-999.0,24,-99.99,,,0.00,Acu-Link.com,2013-03-05 06:06:00,
2013-03-05 00:21:00,65.8,43.9,29.74,NNE,22,5.8,-999.0,45,-99.99,,,0.00,Acu-Link.com,2013-03-05 06:21:00,
2013-03-05 00:37:00,61.7,47.7,29.76,North,0,8.3,-999.0,60,-99.99,,,0.00,Acu-Link.com,2013-03-05 06:37:00,
2013-03-05 00:52:00,55.9,46.3,29.80,NE,45,12.5,-999.0,70,-99.99,,,0.00,Acu-Link.com,2013-03-05 06:52:00,
2013-03-05 01:07:00,53.2,45.2,29.82,NE,45,16.1,-999.0,74,-99.99,,,0.00,Acu-Link.com,2013-03-05 07:07:00,
2013-03-05 01:22:00,51.8,44.5,29.84,NNE,22,7.4,-999.0,76,-99.99,,,0.00,Acu-Link.com,2013-03-05 07:22:00,
2013-03-05 01:37:00,50.0,43.1,29.93,North,0,8.9,-999.0,77,-99.99,,,0.00,Acu-Link.com,2013-03-05 07:37:00,
2013-03-05 01:53:00,49.1,42.2,29.94,NNW,337,10.3,-999.0,77,-99.99,,,0.00,Acu-Link.com,2013-03-05 07:53:00,
2013-03-05 02:08:00,48.7,41.9,29.94,NW,315,16.6,-999.0,77,-99.99,,,0.00,Acu-Link.com,2013-03-05 08:08:00,
2013-03-05 02:23:00,48.6,41.3,29.97,NNE,22,9.8,-999.0,76,-99.99,,,0.00,Acu-Link.com,2013-03-05 08:23:00,
2013-03-05 02:38:00,48.2,40.3,30.00,North,0,16.6,-999.0,74,-99.99,,,0.00,Acu-Link.com,2013-03-05 08:38:00,
2013-03-05 02:54:00,47.7,40.1,29.98,NNE,22,12.5,-999.0,75,-99.99,,,0.00,Acu-Link.com,2013-03-05 08:54:00,
2013-03-05 03:09:00,47.1,39.6,29.99,North,0,11.9,-999.0,75,-99.99,,,0.00,Acu-Link.com,2013-03-05 09:09:00,
2013-03-05 03:24:00,47.1,39.6,30.00,NNE,22,15.4,-999.0,75,-99.99,,,0.00,Acu-Link.com,2013-03-05 09:24:00,
2013-03-05 03:39:00,46.8,39.6,30.03,North,0,17.7,-999.0,76,-99.99,,,0.00,Acu-Link.com,2013-03-05 09:39:00,
2013-03-05 03:54:00,46.6,39.1,30.03,North,0,14.5,-999.0,75,-99.99,,,0.00,Acu-Link.com,2013-03-05 09:54:00,
2013-03-05 04:10:00,46.4,38.6,30.05,NE,45,20.6,-999.0,74,-99.99,,,0.00,Acu-Link.com,2013-03-05 10:10:00,
2013-03-05 04:25:00,46.0,37.9,30.07,NE,45,9.4,-999.0,73,-99.99,,,0.00,Acu-Link.com,2013-03-05 10:25:00,
2013-03-05 04:40:00,45.9,37.4,30.08,NE,45,13.0,-999.0,72,-99.99,,,0.00,Acu-Link.com,2013-03-05 10:40:00,
2013-03-05 04:55:00,45.3,36.8,30.09,NNE,22,9.4,-999.0,72,-99.99,,,0.00,Acu-Link.com,2013-03-05 10:55:00,
2013-03-05 05:10:00,45.1,36.7,30.09,NE,45,17.7,-999.0,72,-99.99,,,0.00,Acu-Link.com,2013-03-05 11:10:00,
2013-03-05 05:26:00,44.6,36.1,30.12,NE,45,11.4,-999.0,72,-99.99,,,0.00,Acu-Link.com,2013-03-05 11:26:00,
2013-03-05 05:41:00,44.1,35.3,30.13,NNE,22,11.0,-999.0,71,-99.99,,,0.00,Acu-Link.com,2013-03-05 11:41:00,
2013-03-05 05:56:00,43.9,34.0,30.13,NE,45,17.7,-999.0,68,-99.99,,,0.00,Acu-Link.com,2013-03-05 11:56:00,
2013-03-05 06:11:00,43.5,32.5,30.15,NNE,22,7.4,-999.0,65,-99.99,,,0.00,Acu-Link.com,2013-03-05 12:11:00,
2013-03-05 06:26:00,43.5,30.2,30.17,ENE,67,10.3,-999.0,59,-99.99,,,0.00,Acu-Link.com,2013-03-05 12:26:00,
2013-03-05 06:42:00,42.8,30.7,30.18,ENE,67,5.8,-999.0,62,-99.99,,,0.00,Acu-Link.com,2013-03-05 12:42:00,
2013-03-05 06:57:00,42.8,29.9,30.19,NE,45,9.8,-999.0,60,-99.99,,,0.00,Acu-Link.com,2013-03-05 12:57:00,
2013-03-05 07:12:00,42.4,29.1,30.20,NNE,22,5.1,-999.0,59,-99.99,,,0.00,Acu-Link.com,2013-03-05 13:12:00,
2013-03-05 07:27:00,42.6,28.9,30.22,North,0,5.1,-999.0,58,-99.99,,,0.00,Acu-Link.com,2013-03-05 13:27:00,
2013-03-05 07:43:00,42.8,29.1,30.22,NE,45,8.3,-999.0,58,-99.99,,,0.00,Acu-Link.com,2013-03-05 13:43:00,
2013-03-05 07:58:00,43.3,29.1,30.23,NE,45,6.3,-999.0,57,-99.99,,,0.00,Acu-Link.com,2013-03-05 13:58:00,
2013-03-05 08:13:00,44.2,29.1,30.24,ESE,112,9.8,-999.0,55,-99.99,,,0.00,Acu-Link.com,2013-03-05 14:13:00,
2013-03-05 08:28:00,45.3,29.7,30.26,NNW,337,11.0,-999.0,54,-99.99,,,0.00,Acu-Link.com,2013-03-05 14:28:00,
2013-03-05 08:43:00,45.5,28.4,30.26,NNW,337,10.3,-999.0,51,-99.99,,,0.00,Acu-Link.com,2013-03-05 14:43:00,
2013-03-05 08:59:00,46.6,28.0,30.26,NNE,22,11.0,-999.0,48,-99.99,,,0.00,Acu-Link.com,2013-03-05 14:59:00,
2013-03-05 09:14:00,47.5,26.1,30.28,NNW,337,8.9,-999.0,43,-99.99,,,0.00,Acu-Link.com,2013-03-05 15:14:00,
2013-03-05 09:29:00,48.4,25.2,30.28,NNE,22,11.9,-999.0,40,-99.99,,,0.00,Acu-Link.com,2013-03-05 15:29:00,
2013-03-05 09:44:00,49.5,23.0,30.29,NNW,337,11.4,-999.0,35,-99.99,,,0.00,Acu-Link.com,2013-03-05 15:44:00,
2013-03-05 09:59:00,49.8,21.9,30.29,NNE,22,6.7,-999.0,33,-99.99,,,0.00,Acu-Link.com,2013-03-05 15:59:00,
2013-03-05 10:15:00,50.5,21.0,30.29,North,0,11.9,-999.0,31,-99.99,,,0.00,Acu-Link.com,2013-03-05 16:15:00,
2013-03-05 10:30:00,51.8,22.1,30.29,NE,45,5.8,-999.0,31,-99.99,,,0.00,Acu-Link.com,2013-03-05 16:30:00,
2013-03-05 10:45:00,53.8,21.5,30.29,NNW,337,8.9,-999.0,28,-99.99,,,0.00,Acu-Link.com,2013-03-05 16:45:00,
2013-03-05 11:00:00,53.8,20.6,30.29,NE,45,7.4,-999.0,27,-99.99,,,0.00,Acu-Link.com,2013-03-05 17:00:00,
2013-03-05 11:15:00,53.1,17.2,30.29,North,0,7.8,-999.0,24,-99.99,,,0.00,Acu-Link.com,2013-03-05 17:15:00,
2013-03-05 11:31:00,54.1,16.2,30.29,NE,45,8.3,-999.0,22,-99.99,,,0.00,Acu-Link.com,2013-03-05 17:31:00,
2013-03-05 11:46:00,54.9,14.6,30.30,NNE,22,12.5,-999.0,20,-99.99,,,0.00,Acu-Link.com,2013-03-05 17:46:00,
2013-03-05 12:01:00,55.2,9.8,30.30,ENE,67,9.8,-999.0,16,-99.99,,,0.00,Acu-Link.com,2013-03-05 18:01:00,
2013-03-05 12:16:00,56.8,-3.8,30.29,NNE,22,8.3,-999.0,8,-99.99,,,0.00,Acu-Link.com,2013-03-05 18:16:00,
2013-03-05 12:32:00,56.1,-18.2,30.29,NNW,337,9.8,-999.0,4,-99.99,,,0.00,Acu-Link.com,2013-03-05 18:32:00,
2013-03-05 12:47:00,58.5,11.0,30.29,North,0,7.4,-999.0,15,-99.99,,,0.00,Acu-Link.com,2013-03-05 18:47:00,
2013-03-05 13:02:00,58.3,-29.7,30.27,North,0,15.0,-999.0,2,-99.99,,,0.00,Acu-Link.com,2013-03-05 19:02:00,
2013-03-05 13:17:00,59.4,15.9,30.27,NNW,337,8.3,-999.0,18,-99.99,,,0.00,Acu-Link.com,2013-03-05 19:17:00,
2013-03-05 13:32:00,58.6,-16.5,30.25,NNW,337,11.0,-999.0,4,-99.99,,,0.00,Acu-Link.com,2013-03-05 19:32:00,
2013-03-05 13:48:00,60.6,-28.2,30.25,North,0,4.7,-999.0,2,-99.99,,,0.00,Acu-Link.com,2013-03-05 19:48:00,
2013-03-05 14:03:00,60.1,59.8,30.24,NE,45,8.9,-999.0,99,-99.99,,,0.00,Acu-Link.com,2013-03-05 20:03:00,
2013-03-05 14:18:00,58.8,58.5,30.24,NNE,22,11.4,-999.0,99,-99.99,,,0.00,Acu-Link.com,2013-03-05 20:18:00,
2013-03-05 14:33:00,59.4,59.1,30.24,NNE,22,11.0,-999.0,99,-99.99,,,0.00,Acu-Link.com,2013-03-05 20:33:00,
2013-03-05 14:48:00,59.7,59.4,30.24,North,0,7.8,-999.0,99,-99.99,,,0.00,Acu-Link.com,2013-03-05 20:48:00,
2013-03-05 15:04:00,60.3,60.0,30.24,NE,45,8.3,-999.0,99,-99.99,,,0.00,Acu-Link.com,2013-03-05 21:04:00,
2013-03-05 15:19:00,61.2,60.9,30.24,NNW,337,6.3,-999.0,99,-99.99,,,0.00,Acu-Link.com,2013-03-05 21:19:00,
2013-03-05 15:34:00,60.3,60.0,30.23,NE,45,6.3,-999.0,99,-99.99,,,0.00,Acu-Link.com,2013-03-05 21:34:00,
2013-03-05 15:49:00,60.1,59.8,30.24,NNW,337,5.1,-999.0,99,-99.99,,,0.00,Acu-Link.com,2013-03-05 21:49:00,
2013-03-05 16:04:00,58.8,58.5,30.23,NNW,337,10.3,-999.0,99,-99.99,,,0.00,Acu-Link.com,2013-03-05 22:04:00,
2013-03-05 16:20:00,59.4,59.1,30.23,West,270,7.8,-999.0,99,-99.99,,,0.00,Acu-Link.com,2013-03-05 22:20:00,
2013-03-05 16:35:00,58.5,58.2,30.23,NE,45,5.8,-999.0,99,-99.99,,,0.00,Acu-Link.com,2013-03-05 22:35:00,
2013-03-05 16:50:00,58.8,58.5,30.24,NNE,22,6.3,-999.0,99,-99.99,,,0.00,Acu-Link.com,2013-03-05 22:50:00,
2013-03-05 17:05:00,58.6,58.4,30.24,NNE,22,8.9,-999.0,99,-99.99,,,0.00,Acu-Link.com,2013-03-05 23:05:00,
2013-03-05 17:20:00,57.6,57.3,30.24,NE,45,7.4,-999.0,99,-99.99,,,0.00,Acu-Link.com,2013-03-05 23:20:00,
2013-03-05 17:36:00,57.4,57.1,30.24,East,90,4.7,-999.0,99,-99.99,,,0.00,Acu-Link.com,2013-03-05 23:36:00,
2013-03-05 17:51:00,56.1,-31.1,30.24,NW,315,3.1,-999.0,2,-99.99,,,0.00,Acu-Link.com,2013-03-05 23:51:00,
2013-03-05 18:06:00,55.4,-18.7,30.25,NNW,337,3.8,-999.0,4,-99.99,,,0.00,Acu-Link.com,2013-03-06 00:06:00,
2013-03-05 18:21:00,54.3,13.0,30.24,North,0,3.8,-999.0,19,-99.99,,,0.00,Acu-Link.com,2013-03-06 00:21:00,
2013-03-05 18:37:00,52.3,13.6,30.25,East,90,2.2,-999.0,21,-99.99,,,0.00,Acu-Link.com,2013-03-06 00:37:00,
2013-03-05 18:52:00,50.4,15.0,30.26,NE,45,0.0,-999.0,24,-99.99,,,0.00,Acu-Link.com,2013-03-06 00:52:00,
2013-03-05 19:07:00,47.8,14.6,30.26,NNE,22,0.0,-999.0,26,-99.99,,,0.00,Acu-Link.com,2013-03-06 01:07:00,
2013-03-05 19:22:00,45.5,14.3,30.27,WSW,247,0.0,-999.0,28,-99.99,,,0.00,Acu-Link.com,2013-03-06 01:22:00,
2013-03-05 19:37:00,43.2,16.0,30.27,NE,45,0.0,-999.0,33,-99.99,,,0.00,Acu-Link.com,2013-03-06 01:37:00,
2013-03-05 19:53:00,41.0,16.1,30.27,NNE,22,0.0,-999.0,36,-99.99,,,0.00,Acu-Link.com,2013-03-06 01:53:00,
2013-03-05 20:08:00,39.7,16.2,30.27,NNE,22,0.0,-999.0,38,-99.99,,,0.00,Acu-Link.com,2013-03-06 02:08:00,
2013-03-05 20:23:00,38.3,16.1,30.27,East,90,0.0,-999.0,40,-99.99,,,0.00,Acu-Link.com,2013-03-06 02:23:00,
2013-03-05 20:38:00,37.2,17.3,30.28,NE,45,0.0,-999.0,44,-99.99,,,0.00,Acu-Link.com,2013-03-06 02:38:00,
2013-03-05 20:53:00,36.5,16.2,30.28,NNE,22,0.0,-999.0,43,-99.99,,,0.00,Acu-Link.com,2013-03-06 02:53:00,
2013-03-05 21:09:00,36.1,15.8,30.28,NNW,337,0.0,-999.0,43,-99.99,,,0.00,Acu-Link.com,2013-03-06 03:09:00,
2013-03-05 21:24:00,35.4,15.7,30.29,NNW,337,0.0,-999.0,44,-99.99,,,0.00,Acu-Link.com,2013-03-06 03:24:00,
2013-03-05 21:39:00,33.8,15.2,30.30,SSE,157,0.0,-999.0,46,-99.99,,,0.00,Acu-Link.com,2013-03-06 03:39:00,
2013-03-05 21:54:00,32.5,15.1,30.30,NE,45,0.0,-999.0,48,-99.99,,,0.00,Acu-Link.com,2013-03-06 03:54:00,
2013-03-05 22:09:00,32.0,15.5,30.30,East,90,0.0,-999.0,50,-99.99,,,0.00,Acu-Link.com,2013-03-06 04:09:00,
2013-03-05 22:25:00,33.4,16.8,30.31,NNE,22,0.0,-999.0,50,-99.99,,,0.00,Acu-Link.com,2013-03-06 04:25:00,
2013-03-05 22:40:00,33.6,16.5,30.31,North,0,0.0,-999.0,49,-99.99,,,0.00,Acu-Link.com,2013-03-06 04:40:00,
2013-03-05 22:55:00,34.2,17.0,30.31,NNE,22,0.0,-999.0,49,-99.99,,,0.00,Acu-Link.com,2013-03-06 04:55:00,
2013-03-05 23:10:00,32.5,16.4,30.31,NE,45,0.0,-999.0,51,-99.99,,,0.00,Acu-Link.com,2013-03-06 05:10:00,
2013-03-05 23:26:00,31.8,15.8,30.31,NNE,22,0.0,-999.0,51,-99.99,,,0.00,Acu-Link.com,2013-03-06 05:26:00,
2013-03-05 23:41:00,32.2,16.6,30.31,NE,45,0.0,-999.0,52,-99.99,,,0.00,Acu-Link.com,2013-03-06 05:41:00,